createdAt,value
2019-02-17T00:01:19.955Z,27.49
2019-02-17T00:06:27.962Z,29.08
2019-02-17T00:11:36.090Z,28.42
2019-02-17T00:16:44.146Z,29.16
2019-02-17T00:21:52.237Z,29.07
2019-02-17T00:27:00.380Z,29.53
2019-02-17T00:32:08.470Z,28.62
2019-02-17T00:37:16.581Z,29.04
2019-02-17T00:42:24.616Z,27.90
2019-02-17T00:47:32.722Z,30.97
2019-02-17T00:52:40.785Z,30.23
2019-02-17T00:57:48.827Z,30.42
2019-02-17T01:02:56.842Z,29.72
2019-02-17T01:08:04.957Z,31.11
2019-02-17T01:13:13.074Z,30.42
2019-02-17T01:18:21.275Z,31.50
2019-02-17T01:23:29.292Z,31.30
2019-02-17T01:28:37.357Z,30.95
2019-02-17T01:33:45.474Z,31.26
2019-02-17T01:38:53.498Z,31.35
2019-02-17T01:44:01.537Z,29.34
2019-02-17T01:49:09.605Z,29.57
2019-02-17T01:54:17.682Z,36.52
2019-02-17T01:59:30.530Z,31.40
2019-02-17T02:04:33.401Z,32.86
2019-02-17T02:09:41.483Z,33.92
2019-02-17T02:14:51.674Z,33.33
2019-02-17T02:19:52.077Z,32.84
2019-02-17T02:25:00.280Z,32.82
2019-02-17T02:30:08.262Z,33.42
2019-02-17T02:35:17.117Z,33.44
2019-02-17T02:40:25.234Z,33.31
2019-02-17T02:45:33.282Z,36.25
2019-02-17T02:50:41.331Z,34.30
2019-02-17T02:55:49.435Z,35.38
2019-02-17T03:00:57.631Z,36.03
2019-02-17T03:06:05.677Z,35.26
2019-02-17T03:11:13.910Z,34.82
2019-02-17T03:16:22.025Z,37.74
2019-02-17T03:21:30.141Z,36.18
2019-02-17T03:26:38.739Z,35.25
2019-02-17T03:31:46.920Z,35.66
2019-02-17T03:36:55.163Z,34.85
2019-02-17T03:42:03.579Z,39.19
2019-02-17T03:47:11.749Z,36.65
2019-02-17T03:52:19.801Z,36.44
2019-02-17T03:57:30.158Z,35.80
2019-02-17T04:02:28.222Z,37.27
2019-02-17T04:07:36.300Z,37.79
2019-02-17T04:12:44.298Z,37.83
2019-02-17T04:17:54.102Z,39.49
2019-02-17T04:23:02.404Z,38.98
2019-02-17T04:28:10.450Z,38.72
2019-02-17T04:33:18.497Z,40.99
2019-02-17T04:38:26.679Z,40.04
2019-02-17T04:43:35.053Z,40.23
2019-02-17T04:48:43.668Z,40.09
2019-02-17T04:53:51.757Z,41.02
2019-02-17T04:58:59.887Z,39.39
2019-02-17T05:04:08.829Z,39.73
2019-02-17T05:09:16.947Z,40.57
2019-02-17T05:14:24.959Z,40.16
2019-02-17T05:19:33.220Z,41.49
2019-02-17T05:24:41.811Z,41.79
2019-02-17T05:29:49.961Z,41.97
2019-02-17T05:34:59.095Z,42.72
2019-02-17T05:40:05.693Z,42.93
2019-02-17T05:45:13.725Z,41.90
2019-02-17T05:50:21.916Z,41.49
2019-02-17T05:55:30.062Z,41.35
2019-02-17T06:00:38.298Z,43.95
2019-02-17T06:05:46.379Z,42.85
2019-02-17T06:10:54.521Z,42.50
2019-02-17T06:16:02.700Z,42.34
2019-02-17T06:21:10.734Z,41.39
2019-02-17T06:26:18.833Z,43.36
2019-02-17T06:31:26.870Z,42.03
2019-02-17T06:36:35.251Z,42.02
2019-02-17T06:41:43.436Z,42.79
2019-02-17T06:46:51.764Z,41.12
2019-02-17T06:52:00.451Z,43.69
2019-02-17T06:57:08.554Z,44.05
2019-02-17T07:02:16.578Z,41.94
2019-02-17T07:07:24.991Z,42.53
2019-02-17T07:12:33.261Z,42.05
2019-02-17T07:17:42.247Z,42.99
2019-02-17T07:22:50.318Z,43.70
2019-02-17T07:27:58.502Z,42.53
2019-02-17T07:33:06.769Z,42.63
2019-02-17T07:38:14.750Z,43.97
2019-02-17T07:43:22.762Z,43.59
2019-02-17T07:48:30.804Z,43.07
2019-02-17T07:53:38.826Z,43.01
2019-02-17T07:58:46.877Z,43.42
2019-02-17T08:03:55.138Z,44.06
2019-02-17T08:09:03.303Z,45.05
2019-02-17T08:14:11.593Z,44.35
2019-02-17T08:19:19.751Z,43.00
2019-02-17T08:24:28.028Z,41.03
2019-02-17T08:29:35.987Z,41.54
2019-02-17T08:34:44.214Z,42.07
2019-02-17T08:39:52.287Z,42.20
2019-02-17T08:45:00.493Z,42.47
2019-02-17T08:50:08.883Z,40.41
2019-02-17T08:55:16.880Z,38.99
2019-02-17T09:00:24.893Z,39.96
2019-02-17T09:05:43.625Z,41.39
2019-02-17T09:10:40.735Z,39.52
2019-02-17T09:15:48.957Z,39.96
2019-02-17T09:20:56.937Z,38.25
2019-02-17T09:26:05.061Z,38.23
2019-02-17T09:31:13.296Z,33.93
2019-02-17T09:36:21.597Z,32.75
2019-02-17T09:41:29.661Z,34.66
2019-02-17T09:46:37.850Z,33.51
2019-02-17T09:51:45.978Z,34.08
2019-02-17T09:56:54.261Z,33.72
2019-02-17T10:02:03.405Z,33.61
2019-02-17T10:07:11.837Z,33.71
2019-02-17T10:12:19.969Z,34.61
2019-02-17T10:17:28.127Z,35.11
2019-02-17T10:22:36.173Z,34.06
2019-02-17T10:27:44.216Z,35.53
2019-02-17T10:32:52.371Z,36.19
2019-02-17T10:38:00.619Z,36.86
2019-02-17T10:43:08.721Z,36.34
2019-02-17T10:48:16.768Z,37.18
2019-02-17T10:53:24.836Z,35.55
2019-02-17T10:58:33.169Z,34.93
2019-02-17T11:03:40.891Z,34.70
2019-02-17T11:08:49.070Z,34.76
2019-02-17T11:13:57.294Z,35.83
2019-02-17T11:19:05.324Z,35.42
2019-02-17T11:24:13.672Z,35.41
2019-02-17T11:29:21.659Z,36.45
2019-02-17T11:34:29.654Z,35.87
2019-02-17T11:39:37.675Z,36.30
2019-02-17T11:44:45.749Z,35.77
2019-02-17T11:49:53.737Z,35.47
2019-02-17T11:55:01.882Z,35.53
2019-02-17T12:00:10.116Z,33.81
2019-02-17T12:05:18.526Z,34.84
2019-02-17T12:10:26.819Z,34.43
2019-02-17T12:15:34.939Z,33.92
2019-02-17T12:20:43.072Z,33.39
2019-02-17T12:25:51.470Z,33.28
2019-02-17T12:30:59.721Z,34.22
2019-02-17T12:36:07.943Z,33.05
2019-02-17T12:41:16.158Z,32.61
2019-02-17T12:46:24.257Z,31.90
2019-02-17T12:51:32.619Z,32.99
2019-02-17T12:56:40.878Z,33.19
2019-02-17T13:01:49.357Z,35.44
2019-02-17T13:06:57.497Z,33.95
2019-02-17T13:12:05.710Z,33.08
2019-02-17T13:17:14.087Z,34.69
2019-02-17T13:22:22.356Z,34.80
2019-02-17T13:27:30.560Z,34.80
2019-02-17T13:32:39.824Z,34.20
2019-02-17T13:37:48.103Z,33.48
2019-02-17T13:42:56.687Z,32.27
2019-02-17T13:48:05.223Z,32.44
2019-02-17T13:53:13.793Z,31.97
2019-02-17T13:58:22.331Z,30.83
2019-02-17T14:03:30.790Z,31.77
2019-02-17T14:08:39.228Z,31.69
2019-02-17T14:13:47.657Z,34.29
2019-02-17T14:18:56.019Z,32.72
2019-02-17T14:24:04.533Z,32.19
2019-02-17T14:29:12.980Z,32.46
2019-02-17T14:34:21.678Z,33.04
2019-02-17T14:39:30.156Z,32.54
2019-02-17T14:44:38.647Z,32.75
2019-02-17T14:49:47.397Z,32.72
2019-02-17T14:54:55.946Z,32.69
2019-02-17T15:00:04.338Z,31.87
2019-02-17T15:05:12.751Z,31.93
2019-02-17T15:10:21.290Z,31.91
2019-02-17T15:15:29.822Z,28.62
2019-02-17T15:20:37.895Z,28.82
2019-02-17T15:25:45.937Z,28.65
2019-02-17T15:30:55.560Z,29.03
2019-02-17T15:36:07.192Z,28.05
2019-02-17T15:41:07.153Z,27.40
2019-02-17T15:46:15.850Z,28.36
2019-02-17T15:51:24.673Z,28.19
2019-02-17T15:56:34.802Z,26.68
2019-02-17T16:01:36.614Z,28.63
2019-02-17T16:06:34.652Z,26.85
2019-02-17T16:11:42.784Z,28.51
2019-02-17T16:16:51.487Z,27.69
2019-02-17T16:22:00.007Z,28.52
2019-02-17T16:27:08.468Z,26.68
2019-02-17T16:32:16.900Z,26.23
2019-02-17T16:37:25.303Z,27.27
2019-02-17T16:42:34.159Z,27.68
2019-02-17T16:47:43.352Z,26.72
2019-02-17T16:52:51.884Z,27.98
2019-02-17T16:58:00.638Z,27.31
2019-02-17T17:03:09.119Z,28.89
2019-02-17T17:08:17.637Z,29.62
2019-02-17T17:13:26.123Z,30.57
2019-02-17T17:18:34.853Z,30.91
2019-02-17T17:23:43.616Z,30.22
2019-02-17T17:28:51.807Z,28.54
2019-02-17T17:33:59.901Z,29.66
2019-02-17T17:39:08.082Z,30.40
2019-02-17T17:44:16.661Z,31.09
2019-02-17T17:49:25.059Z,29.67
2019-02-17T17:54:33.293Z,31.06
2019-02-17T17:59:41.646Z,31.20
2019-02-17T18:04:50.007Z,32.53
2019-02-17T18:09:58.395Z,31.97
2019-02-17T18:15:06.680Z,32.82
2019-02-17T18:20:14.964Z,32.61
2019-02-17T18:25:23.225Z,34.17
2019-02-17T18:30:31.364Z,33.46
2019-02-17T18:35:39.491Z,35.43
2019-02-17T18:40:48.022Z,34.31
2019-02-17T18:45:59.122Z,34.27
2019-02-17T18:50:59.491Z,34.00
2019-02-17T18:56:05.303Z,32.90
2019-02-17T19:01:13.711Z,36.17
2019-02-17T19:06:21.777Z,34.51
2019-02-17T19:11:30.200Z,32.95
2019-02-17T19:16:39.235Z,39.12
2019-02-17T19:21:48.079Z,34.80
2019-02-17T19:26:56.189Z,34.59
2019-02-17T19:32:04.284Z,32.95
2019-02-17T19:37:12.437Z,33.50
2019-02-17T19:42:21.026Z,33.94
2019-02-17T19:47:29.333Z,33.67
2019-02-17T19:52:37.790Z,33.70
2019-02-17T19:57:45.859Z,31.33
2019-02-17T20:02:54.564Z,30.98
2019-02-17T20:08:02.867Z,33.97
2019-02-17T20:13:11.101Z,34.72
2019-02-17T20:18:19.308Z,34.43
2019-02-17T20:23:27.945Z,34.84
2019-02-17T20:33:44.112Z,34.29
2019-02-17T20:38:52.322Z,33.44
2019-02-17T20:44:01.522Z,33.27
2019-02-17T20:49:09.741Z,34.06
2019-02-17T20:54:18.404Z,34.32
2019-02-17T20:59:26.938Z,34.14
2019-02-17T21:04:35.334Z,35.06
2019-02-17T21:09:43.451Z,33.52
2019-02-17T21:14:51.701Z,33.57
2019-02-17T21:19:59.928Z,33.98
2019-02-17T21:25:08.353Z,34.39
2019-02-17T21:30:16.860Z,33.58
2019-02-17T21:35:25.159Z,34.93
2019-02-17T21:40:33.310Z,35.63
2019-02-17T21:45:41.659Z,35.04
2019-02-17T21:50:49.903Z,33.49
2019-02-17T21:55:59.223Z,33.26
2019-02-17T22:01:07.437Z,34.87
2019-02-17T22:06:15.697Z,34.72
2019-02-17T22:11:23.901Z,33.47
2019-02-17T22:16:32.356Z,34.95
2019-02-17T22:21:40.580Z,33.95
2019-02-17T22:26:48.975Z,33.18
2019-02-17T22:31:57.191Z,33.04
2019-02-17T22:37:05.628Z,32.89
2019-02-17T22:42:14.846Z,32.56
2019-02-17T22:47:23.148Z,32.53
2019-02-17T22:52:31.594Z,32.15
2019-02-17T22:57:40.038Z,32.37
2019-02-17T23:02:48.174Z,32.91
2019-02-17T23:07:56.482Z,32.11
2019-02-17T23:13:04.679Z,31.65
2019-02-17T23:18:13.042Z,32.08
2019-02-17T23:23:21.284Z,33.18
2019-02-17T23:28:29.701Z,34.46
2019-02-17T23:33:37.870Z,34.22
2019-02-17T23:38:46.249Z,33.72
2019-02-17T23:43:54.453Z,34.57
2019-02-17T23:49:02.853Z,34.42
2019-02-17T23:54:10.977Z,34.23
2019-02-17T23:59:19.360Z,32.36
